sensor_id;sensor_type;location;lat;lon;timestamp;P1;durP1;ratioP1;P2;durP2;ratioP2
18793;SDS011;29610;49.022;12.114;2023-10-09T00:00:33;15.10;;;6.30;;
18793;SDS011;29610;49.022;12.114;2023-10-09T00:03:28;12.40;;;6.67;;
18793;SDS011;29610;49.022;12.114;2023-10-09T00:05:58;13.80;;;6.87;;
18793;SDS011;29610;49.022;12.114;2023-10-09T00:08:29;13.70;;;7.27;;
18793;SDS011;29610;49.022;12.114;2023-10-09T00:11:00;12.93;;;6.40;;
18793;SDS011;29610;49.022;12.114;2023-10-09T00:13:43;18.80;;;6.20;;
18793;SDS011;29610;49.022;12.114;2023-10-09T00:16:19;19.40;;;7.87;;
18793;SDS011;29610;49.022;12.114;2023-10-09T00:19:01;17.97;;;7.10;;
18793;SDS011;29610;49.022;12.114;2023-10-09T00:21:41;16.37;;;6.57;;
18793;SDS011;29610;49.022;12.114;2023-10-09T00:24:10;15.47;;;7.20;;
18793;SDS011;29610;49.022;12.114;2023-10-09T00:26:51;16.50;;;6.87;;
18793;SDS011;29610;49.022;12.114;2023-10-09T00:29:22;14.70;;;8.10;;
18793;SDS011;29610;49.022;12.114;2023-10-09T00:31:54;17.80;;;8.50;;
18793;SDS011;29610;49.022;12.114;2023-10-09T00:34:30;15.90;;;8.30;;
18793;SDS011;29610;49.022;12.114;2023-10-09T00:37:06;25.70;;;8.70;;
18793;SDS011;29610;49.022;12.114;2023-10-09T00:39:37;19.20;;;8.30;;
18793;SDS011;29610;49.022;12.114;2023-10-09T00:42:11;16.93;;;7.97;;
18793;SDS011;29610;49.022;12.114;2023-10-09T00:44:41;16.33;;;8.03;;
18793;SDS011;29610;49.022;12.114;2023-10-09T00:47:12;14.47;;;7.27;;
18793;SDS011;29610;49.022;12.114;2023-10-09T00:49:49;16.77;;;8.60;;
18793;SDS011;29610;49.022;12.114;2023-10-09T00:52:26;17.63;;;9.67;;
18793;SDS011;29610;49.022;12.114;2023-10-09T00:55:03;18.90;;;7.87;;
18793;SDS011;29610;49.022;12.114;2023-10-09T00:57:42;15.60;;;7.87;;
18793;SDS011;29610;49.022;12.114;2023-10-09T01:00:23;16.20;;;7.83;;
18793;SDS011;29610;49.022;12.114;2023-10-09T01:02:59;18.03;;;8.13;;
18793;SDS011;29610;49.022;12.114;2023-10-09T01:05:46;23.00;;;8.50;;
18793;SDS011;29610;49.022;12.114;2023-10-09T01:08:23;16.33;;;7.93;;
18793;SDS011;29610;49.022;12.114;2023-10-09T01:10:56;15.20;;;7.43;;
18793;SDS011;29610;49.022;12.114;2023-10-09T01:13:37;16.43;;;8.60;;
18793;SDS011;29610;49.022;12.114;2023-10-09T01:16:19;17.83;;;8.03;;
18793;SDS011;29610;49.022;12.114;2023-10-09T01:18:49;15.30;;;8.20;;
18793;SDS011;29610;49.022;12.114;2023-10-09T01:21:20;19.20;;;9.33;;
18793;SDS011;29610;49.022;12.114;2023-10-09T01:23:52;20.03;;;9.33;;
18793;SDS011;29610;49.022;12.114;2023-10-09T01:26:34;18.30;;;9.67;;
18793;SDS011;29610;49.022;12.114;2023-10-09T01:29:12;20.33;;;10.20;;
18793;SDS011;29610;49.022;12.114;2023-10-09T01:31:46;17.20;;;9.30;;
18793;SDS011;29610;49.022;12.114;2023-10-09T01:34:22;15.00;;;8.77;;
18793;SDS011;29610;49.022;12.114;2023-10-09T01:36:53;21.13;;;9.70;;
18793;SDS011;29610;49.022;12.114;2023-10-09T01:39:24;21.63;;;9.07;;
18793;SDS011;29610;49.022;12.114;2023-10-09T01:41:54;17.67;;;9.63;;
18793;SDS011;29610;49.022;12.114;2023-10-09T01:44:28;21.10;;;10.20;;
18793;SDS011;29610;49.022;12.114;2023-10-09T01:47:01;23.43;;;10.83;;
18793;SDS011;29610;49.022;12.114;2023-10-09T01:49:33;24.20;;;10.53;;
18793;SDS011;29610;49.022;12.114;2023-10-09T01:52:07;15.80;;;8.47;;
18793;SDS011;29610;49.022;12.114;2023-10-09T01:54:38;19.20;;;9.47;;
18793;SDS011;29610;49.022;12.114;2023-10-09T01:57:08;18.43;;;9.40;;
18793;SDS011;29610;49.022;12.114;2023-10-09T01:59:39;18.87;;;9.40;;
18793;SDS011;29610;49.022;12.114;2023-10-09T02:02:11;18.50;;;8.87;;
18793;SDS011;29610;49.022;12.114;2023-10-09T02:04:53;19.27;;;9.30;;
18793;SDS011;29610;49.022;12.114;2023-10-09T02:07:33;17.20;;;9.20;;
18793;SDS011;29610;49.022;12.114;2023-10-09T02:10:09;16.73;;;9.47;;
18793;SDS011;29610;49.022;12.114;2023-10-09T02:12:52;18.13;;;8.20;;
18793;SDS011;29610;49.022;12.114;2023-10-09T02:15:26;18.97;;;8.20;;
18793;SDS011;29610;49.022;12.114;2023-10-09T02:18:18;14.83;;;8.07;;
18793;SDS011;29610;49.022;12.114;2023-10-09T02:21:07;17.67;;;8.40;;
18793;SDS011;29610;49.022;12.114;2023-10-09T02:23:42;16.80;;;8.63;;
18793;SDS011;29610;49.022;12.114;2023-10-09T02:26:18;17.37;;;9.90;;
18793;SDS011;29610;49.022;12.114;2023-10-09T02:28:52;20.00;;;9.90;;
18793;SDS011;29610;49.022;12.114;2023-10-09T02:31:26;16.90;;;8.50;;
18793;SDS011;29610;49.022;12.114;2023-10-09T02:34:03;17.53;;;8.90;;
18793;SDS011;29610;49.022;12.114;2023-10-09T02:36:34;18.50;;;9.07;;
18793;SDS011;29610;49.022;12.114;2023-10-09T02:39:05;18.23;;;9.00;;
18793;SDS011;29610;49.022;12.114;2023-10-09T02:41:49;18.07;;;9.00;;
18793;SDS011;29610;49.022;12.114;2023-10-09T02:44:20;17.60;;;9.17;;
18793;SDS011;29610;49.022;12.114;2023-10-09T02:46:52;20.93;;;9.80;;
18793;SDS011;29610;49.022;12.114;2023-10-09T02:49:24;18.83;;;9.63;;
18793;SDS011;29610;49.022;12.114;2023-10-09T02:51:54;19.90;;;9.47;;
18793;SDS011;29610;49.022;12.114;2023-10-09T02:54:23;25.00;;;10.43;;
18793;SDS011;29610;49.022;12.114;2023-10-09T02:57:03;19.87;;;10.10;;
18793;SDS011;29610;49.022;12.114;2023-10-09T02:59:42;20.40;;;9.90;;
18793;SDS011;29610;49.022;12.114;2023-10-09T03:02:11;18.63;;;9.57;;
18793;SDS011;29610;49.022;12.114;2023-10-09T03:04:40;18.93;;;10.00;;
18793;SDS011;29610;49.022;12.114;2023-10-09T03:07:09;22.47;;;9.67;;
18793;SDS011;29610;49.022;12.114;2023-10-09T03:09:40;18.57;;;9.10;;
18793;SDS011;29610;49.022;12.114;2023-10-09T03:12:09;20.40;;;11.30;;
18793;SDS011;29610;49.022;12.114;2023-10-09T03:14:39;24.63;;;10.93;;
18793;SDS011;29610;49.022;12.114;2023-10-09T03:17:09;23.20;;;10.27;;
18793;SDS011;29610;49.022;12.114;2023-10-09T03:19:39;19.17;;;10.70;;
18793;SDS011;29610;49.022;12.114;2023-10-09T03:22:10;19.80;;;9.10;;
18793;SDS011;29610;49.022;12.114;2023-10-09T03:24:38;26.60;;;11.80;;
18793;SDS011;29610;49.022;12.114;2023-10-09T03:27:17;19.10;;;9.93;;
18793;SDS011;29610;49.022;12.114;2023-10-09T03:29:46;25.40;;;10.90;;
18793;SDS011;29610;49.022;12.114;2023-10-09T03:32:20;23.20;;;10.67;;
18793;SDS011;29610;49.022;12.114;2023-10-09T03:34:48;19.57;;;9.00;;
18793;SDS011;29610;49.022;12.114;2023-10-09T03:37:18;26.13;;;10.47;;
18793;SDS011;29610;49.022;12.114;2023-10-09T03:40:00;20.20;;;10.20;;
18793;SDS011;29610;49.022;12.114;2023-10-09T03:42:31;33.20;;;9.97;;
18793;SDS011;29610;49.022;12.114;2023-10-09T03:45:02;23.93;;;10.90;;
18793;SDS011;29610;49.022;12.114;2023-10-09T03:47:39;21.00;;;10.17;;
18793;SDS011;29610;49.022;12.114;2023-10-09T03:50:09;19.30;;;10.27;;
18793;SDS011;29610;49.022;12.114;2023-10-09T03:52:50;21.27;;;10.17;;
18793;SDS011;29610;49.022;12.114;2023-10-09T03:55:21;28.03;;;10.60;;
18793;SDS011;29610;49.022;12.114;2023-10-09T03:57:56;26.57;;;10.70;;
18793;SDS011;29610;49.022;12.114;2023-10-09T04:00:27;24.23;;;9.93;;
18793;SDS011;29610;49.022;12.114;2023-10-09T04:02:58;21.33;;;10.30;;
18793;SDS011;29610;49.022;12.114;2023-10-09T04:05:27;18.87;;;9.77;;
18793;SDS011;29610;49.022;12.114;2023-10-09T04:07:55;30.30;;;11.40;;
18793;SDS011;29610;49.022;12.114;2023-10-09T04:10:25;20.80;;;10.43;;
18793;SDS011;29610;49.022;12.114;2023-10-09T04:13:09;21.67;;;10.10;;
18793;SDS011;29610;49.022;12.114;2023-10-09T04:15:43;26.47;;;10.90;;
18793;SDS011;29610;49.022;12.114;2023-10-09T04:18:11;19.70;;;10.40;;
18793;SDS011;29610;49.022;12.114;2023-10-09T04:20:42;21.47;;;10.47;;
18793;SDS011;29610;49.022;12.114;2023-10-09T04:23:45;17.53;;;9.83;;
18793;SDS011;29610;49.022;12.114;2023-10-09T04:26:49;19.87;;;9.17;;
18793;SDS011;29610;49.022;12.114;2023-10-09T04:29:24;20.67;;;10.70;;
18793;SDS011;29610;49.022;12.114;2023-10-09T04:32:04;23.30;;;10.10;;
18793;SDS011;29610;49.022;12.114;2023-10-09T04:34:45;18.90;;;10.00;;
18793;SDS011;29610;49.022;12.114;2023-10-09T04:37:16;25.17;;;11.27;;
18793;SDS011;29610;49.022;12.114;2023-10-09T04:39:50;25.90;;;11.43;;
18793;SDS011;29610;49.022;12.114;2023-10-09T04:42:30;19.00;;;10.23;;
18793;SDS011;29610;49.022;12.114;2023-10-09T04:45:06;20.90;;;10.40;;
18793;SDS011;29610;49.022;12.114;2023-10-09T04:48:08;31.27;;;11.07;;
18793;SDS011;29610;49.022;12.114;2023-10-09T04:50:36;24.60;;;11.50;;
18793;SDS011;29610;49.022;12.114;2023-10-09T04:53:34;27.73;;;11.93;;
18793;SDS011;29610;49.022;12.114;2023-10-09T04:56:10;26.80;;;11.33;;
18793;SDS011;29610;49.022;12.114;2023-10-09T04:58:42;33.50;;;12.70;;
18793;SDS011;29610;49.022;12.114;2023-10-09T05:01:13;24.53;;;11.70;;
18793;SDS011;29610;49.022;12.114;2023-10-09T05:04:02;23.00;;;11.83;;
18793;SDS011;29610;49.022;12.114;2023-10-09T05:06:52;32.43;;;13.63;;
18793;SDS011;29610;49.022;12.114;2023-10-09T05:09:23;23.57;;;12.03;;
18793;SDS011;29610;49.022;12.114;2023-10-09T05:11:51;25.10;;;13.20;;
18793;SDS011;29610;49.022;12.114;2023-10-09T05:14:42;28.87;;;11.70;;
18793;SDS011;29610;49.022;12.114;2023-10-09T05:17:34;25.23;;;11.63;;
18793;SDS011;29610;49.022;12.114;2023-10-09T05:20:02;29.83;;;13.67;;
18793;SDS011;29610;49.022;12.114;2023-10-09T05:22:49;24.00;;;12.23;;
18793;SDS011;29610;49.022;12.114;2023-10-09T05:25:46;27.73;;;12.90;;
18793;SDS011;29610;49.022;12.114;2023-10-09T05:28:22;24.50;;;12.83;;
18793;SDS011;29610;49.022;12.114;2023-10-09T05:30:58;34.27;;;15.33;;
18793;SDS011;29610;49.022;12.114;2023-10-09T05:33:37;32.43;;;15.10;;
18793;SDS011;29610;49.022;12.114;2023-10-09T05:36:05;32.00;;;15.97;;
18793;SDS011;29610;49.022;12.114;2023-10-09T05:38:58;31.07;;;14.50;;
18793;SDS011;29610;49.022;12.114;2023-10-09T05:41:25;36.93;;;15.70;;
18793;SDS011;29610;49.022;12.114;2023-10-09T05:44:14;40.83;;;17.83;;
18793;SDS011;29610;49.022;12.114;2023-10-09T05:47:00;35.70;;;17.30;;
18793;SDS011;29610;49.022;12.114;2023-10-09T05:49:47;34.63;;;17.50;;
18793;SDS011;29610;49.022;12.114;2023-10-09T05:52:33;33.10;;;15.80;;
18793;SDS011;29610;49.022;12.114;2023-10-09T05:55:15;34.43;;;18.20;;
18793;SDS011;29610;49.022;12.114;2023-10-09T05:58:01;39.47;;;18.57;;
18793;SDS011;29610;49.022;12.114;2023-10-09T06:00:47;35.50;;;18.43;;
18793;SDS011;29610;49.022;12.114;2023-10-09T06:03:46;32.30;;;16.50;;
18793;SDS011;29610;49.022;12.114;2023-10-09T06:06:23;33.63;;;17.87;;
18793;SDS011;29610;49.022;12.114;2023-10-09T06:09:01;34.50;;;16.87;;
18793;SDS011;29610;49.022;12.114;2023-10-09T06:11:48;35.07;;;17.13;;
18793;SDS011;29610;49.022;12.114;2023-10-09T06:14:22;39.77;;;17.73;;
18793;SDS011;29610;49.022;12.114;2023-10-09T06:17:08;34.13;;;17.50;;
18793;SDS011;29610;49.022;12.114;2023-10-09T06:20:04;34.53;;;16.90;;
18793;SDS011;29610;49.022;12.114;2023-10-09T06:22:58;37.17;;;18.07;;
18793;SDS011;29610;49.022;12.114;2023-10-09T06:25:44;33.00;;;16.30;;
18793;SDS011;29610;49.022;12.114;2023-10-09T06:28:18;35.80;;;15.97;;
18793;SDS011;29610;49.022;12.114;2023-10-09T06:30:59;37.13;;;20.13;;
18793;SDS011;29610;49.022;12.114;2023-10-09T06:33:47;34.93;;;17.53;;
18793;SDS011;29610;49.022;12.114;2023-10-09T06:36:34;35.47;;;16.90;;
18793;SDS011;29610;49.022;12.114;2023-10-09T06:39:09;28.80;;;15.83;;
18793;SDS011;29610;49.022;12.114;2023-10-09T06:41:51;37.83;;;16.87;;
18793;SDS011;29610;49.022;12.114;2023-10-09T06:44:37;32.07;;;16.70;;
18793;SDS011;29610;49.022;12.114;2023-10-09T06:47:20;33.80;;;17.67;;
18793;SDS011;29610;49.022;12.114;2023-10-09T06:49:50;36.03;;;18.93;;
18793;SDS011;29610;49.022;12.114;2023-10-09T06:52:33;29.20;;;17.00;;
18793;SDS011;29610;49.022;12.114;2023-10-09T06:55:16;42.67;;;18.63;;
18793;SDS011;29610;49.022;12.114;2023-10-09T06:57:59;41.90;;;18.97;;
18793;SDS011;29610;49.022;12.114;2023-10-09T07:00:28;32.53;;;17.97;;
18793;SDS011;29610;49.022;12.114;2023-10-09T07:03:14;26.20;;;15.77;;
18793;SDS011;29610;49.022;12.114;2023-10-09T07:05:46;32.33;;;16.37;;
18793;SDS011;29610;49.022;12.114;2023-10-09T07:08:31;28.20;;;13.90;;
18793;SDS011;29610;49.022;12.114;2023-10-09T07:11:04;29.63;;;13.10;;
18793;SDS011;29610;49.022;12.114;2023-10-09T07:13:48;28.63;;;13.30;;
18793;SDS011;29610;49.022;12.114;2023-10-09T07:16:22;26.73;;;14.17;;
18793;SDS011;29610;49.022;12.114;2023-10-09T07:19:04;23.47;;;12.17;;
18793;SDS011;29610;49.022;12.114;2023-10-09T07:21:57;18.73;;;12.30;;
18793;SDS011;29610;49.022;12.114;2023-10-09T07:24:29;22.17;;;10.80;;
18793;SDS011;29610;49.022;12.114;2023-10-09T07:27:11;22.93;;;10.70;;
18793;SDS011;29610;49.022;12.114;2023-10-09T07:29:40;20.83;;;10.67;;
18793;SDS011;29610;49.022;12.114;2023-10-09T07:32:15;22.27;;;10.67;;
18793;SDS011;29610;49.022;12.114;2023-10-09T07:34:47;19.77;;;10.87;;
18793;SDS011;29610;49.022;12.114;2023-10-09T07:37:26;25.63;;;9.40;;
18793;SDS011;29610;49.022;12.114;2023-10-09T07:39:58;22.27;;;10.83;;
18793;SDS011;29610;49.022;12.114;2023-10-09T07:42:38;16.90;;;9.73;;
18793;SDS011;29610;49.022;12.114;2023-10-09T07:45:19;23.03;;;8.83;;
18793;SDS011;29610;49.022;12.114;2023-10-09T07:48:02;22.77;;;9.33;;
18793;SDS011;29610;49.022;12.114;2023-10-09T07:50:48;21.30;;;8.97;;
18793;SDS011;29610;49.022;12.114;2023-10-09T07:53:30;22.30;;;8.40;;
18793;SDS011;29610;49.022;12.114;2023-10-09T07:56:24;18.13;;;8.90;;
18793;SDS011;29610;49.022;12.114;2023-10-09T07:58:59;20.27;;;7.93;;
18793;SDS011;29610;49.022;12.114;2023-10-09T08:01:30;19.57;;;8.40;;
18793;SDS011;29610;49.022;12.114;2023-10-09T08:04:05;17.03;;;7.77;;
18793;SDS011;29610;49.022;12.114;2023-10-09T08:06:38;30.13;;;12.80;;
18793;SDS011;29610;49.022;12.114;2023-10-09T08:09:29;20.00;;;9.43;;
18793;SDS011;29610;49.022;12.114;2023-10-09T08:12:14;19.27;;;8.40;;
18793;SDS011;29610;49.022;12.114;2023-10-09T08:15:19;18.10;;;8.43;;
18793;SDS011;29610;49.022;12.114;2023-10-09T08:18:02;19.00;;;8.97;;
18793;SDS011;29610;49.022;12.114;2023-10-09T08:20:37;17.80;;;7.53;;
18793;SDS011;29610;49.022;12.114;2023-10-09T08:23:39;17.50;;;7.70;;
18793;SDS011;29610;49.022;12.114;2023-10-09T08:26:16;16.33;;;6.80;;
18793;SDS011;29610;49.022;12.114;2023-10-09T08:59:07;19.70;;;6.90;;
18793;SDS011;29610;49.022;12.114;2023-10-09T09:01:37;19.67;;;7.50;;
18793;SDS011;29610;49.022;12.114;2023-10-09T09:04:06;32.40;;;7.20;;
18793;SDS011;29610;49.022;12.114;2023-10-09T09:06:38;19.37;;;6.23;;
18793;SDS011;29610;49.022;12.114;2023-10-09T09:09:11;17.03;;;7.17;;
18793;SDS011;29610;49.022;12.114;2023-10-09T09:11:41;20.33;;;8.30;;
18793;SDS011;29610;49.022;12.114;2023-10-09T09:14:17;17.17;;;5.87;;
18793;SDS011;29610;49.022;12.114;2023-10-09T09:16:48;16.70;;;5.80;;
18793;SDS011;29610;49.022;12.114;2023-10-09T09:19:18;15.90;;;6.40;;
18793;SDS011;29610;49.022;12.114;2023-10-09T09:21:59;18.10;;;6.87;;
18793;SDS011;29610;49.022;12.114;2023-10-09T09:24:38;17.00;;;6.00;;
18793;SDS011;29610;49.022;12.114;2023-10-09T09:27:18;17.03;;;5.73;;
18793;SDS011;29610;49.022;12.114;2023-10-09T09:29:49;22.50;;;6.20;;
18793;SDS011;29610;49.022;12.114;2023-10-09T09:32:27;15.93;;;6.40;;
18793;SDS011;29610;49.022;12.114;2023-10-09T09:35:03;21.70;;;6.63;;
18793;SDS011;29610;49.022;12.114;2023-10-09T09:37:51;23.07;;;7.17;;
18793;SDS011;29610;49.022;12.114;2023-10-09T09:40:21;16.67;;;5.90;;
18793;SDS011;29610;49.022;12.114;2023-10-09T09:43:01;16.73;;;6.00;;
18793;SDS011;29610;49.022;12.114;2023-10-09T09:45:34;16.77;;;5.70;;
18793;SDS011;29610;49.022;12.114;2023-10-09T09:48:04;15.67;;;5.70;;
18793;SDS011;29610;49.022;12.114;2023-10-09T09:50:37;21.60;;;6.10;;
18793;SDS011;29610;49.022;12.114;2023-10-09T09:53:10;19.57;;;5.47;;
18793;SDS011;29610;49.022;12.114;2023-10-09T09:55:45;17.03;;;6.00;;
18793;SDS011;29610;49.022;12.114;2023-10-09T09:58:23;17.53;;;6.57;;
18793;SDS011;29610;49.022;12.114;2023-10-09T10:01:01;20.90;;;5.90;;
18793;SDS011;29610;49.022;12.114;2023-10-09T10:03:44;14.17;;;5.30;;
18793;SDS011;29610;49.022;12.114;2023-10-09T10:09:33;20.27;;;5.60;;
18793;SDS011;29610;49.022;12.114;2023-10-09T10:12:05;20.57;;;7.17;;
18793;SDS011;29610;49.022;12.114;2023-10-09T10:14:51;19.33;;;5.77;;
18793;SDS011;29610;49.022;12.114;2023-10-09T10:17:25;23.40;;;6.27;;
18793;SDS011;29610;49.022;12.114;2023-10-09T10:20:03;17.37;;;5.30;;
18793;SDS011;29610;49.022;12.114;2023-10-09T10:23:15;17.23;;;5.10;;
18793;SDS011;29610;49.022;12.114;2023-10-09T10:25:45;30.17;;;5.67;;
18793;SDS011;29610;49.022;12.114;2023-10-09T10:28:17;27.90;;;6.00;;
18793;SDS011;29610;49.022;12.114;2023-10-09T10:31:06;21.97;;;5.50;;
18793;SDS011;29610;49.022;12.114;2023-10-09T10:36:38;20.77;;;5.50;;
18793;SDS011;29610;49.022;12.114;2023-10-09T10:39:09;28.70;;;6.60;;
18793;SDS011;29610;49.022;12.114;2023-10-09T10:41:52;21.30;;;5.27;;
18793;SDS011;29610;49.022;12.114;2023-10-09T10:44:25;23.27;;;5.70;;
18793;SDS011;29610;49.022;12.114;2023-10-09T10:47:11;20.00;;;5.90;;
18793;SDS011;29610;49.022;12.114;2023-10-09T10:49:53;23.03;;;6.10;;
18793;SDS011;29610;49.022;12.114;2023-10-09T10:52:26;20.17;;;6.10;;
18793;SDS011;29610;49.022;12.114;2023-10-09T10:55:09;37.03;;;6.97;;
18793;SDS011;29610;49.022;12.114;2023-10-09T10:58:15;20.53;;;6.80;;
18793;SDS011;29610;49.022;12.114;2023-10-09T11:00:53;16.13;;;6.20;;
18793;SDS011;29610;49.022;12.114;2023-10-09T11:03:38;20.53;;;6.77;;
18793;SDS011;29610;49.022;12.114;2023-10-09T11:06:27;23.23;;;8.23;;
18793;SDS011;29610;49.022;12.114;2023-10-09T11:09:04;40.40;;;9.47;;
18793;SDS011;29610;49.022;12.114;2023-10-09T11:11:48;44.00;;;6.93;;
18793;SDS011;29610;49.022;12.114;2023-10-09T11:14:21;27.50;;;6.60;;
18793;SDS011;29610;49.022;12.114;2023-10-09T11:16:51;25.00;;;6.20;;
18793;SDS011;29610;49.022;12.114;2023-10-09T11:19:25;27.03;;;6.40;;
18793;SDS011;29610;49.022;12.114;2023-10-09T11:21:59;21.63;;;5.73;;
18793;SDS011;29610;49.022;12.114;2023-10-09T11:24:54;22.70;;;5.33;;
18793;SDS011;29610;49.022;12.114;2023-10-09T11:27:39;16.80;;;5.87;;
18793;SDS011;29610;49.022;12.114;2023-10-09T11:30:17;22.17;;;6.10;;
18793;SDS011;29610;49.022;12.114;2023-10-09T11:33:05;23.73;;;6.50;;
18793;SDS011;29610;49.022;12.114;2023-10-09T11:35:41;26.43;;;7.07;;
18793;SDS011;29610;49.022;12.114;2023-10-09T11:38:24;19.07;;;5.90;;
18793;SDS011;29610;49.022;12.114;2023-10-09T11:40:55;16.40;;;5.80;;
18793;SDS011;29610;49.022;12.114;2023-10-09T11:43:46;12.90;;;5.40;;
18793;SDS011;29610;49.022;12.114;2023-10-09T11:46:23;22.53;;;6.73;;
18793;SDS011;29610;49.022;12.114;2023-10-09T11:49:06;19.30;;;7.33;;
18793;SDS011;29610;49.022;12.114;2023-10-09T11:52:07;13.53;;;5.40;;
18793;SDS011;29610;49.022;12.114;2023-10-09T11:55:03;19.40;;;6.67;;
18793;SDS011;29610;49.022;12.114;2023-10-09T11:57:34;16.07;;;6.13;;
18793;SDS011;29610;49.022;12.114;2023-10-09T12:00:05;19.80;;;7.00;;
18793;SDS011;29610;49.022;12.114;2023-10-09T12:02:51;24.20;;;7.40;;
18793;SDS011;29610;49.022;12.114;2023-10-09T12:05:19;25.03;;;7.37;;
18793;SDS011;29610;49.022;12.114;2023-10-09T12:07:48;25.80;;;7.50;;
18793;SDS011;29610;49.022;12.114;2023-10-09T12:10:22;17.47;;;6.60;;
18793;SDS011;29610;49.022;12.114;2023-10-09T12:12:52;19.30;;;7.33;;
18793;SDS011;29610;49.022;12.114;2023-10-09T12:15:24;23.30;;;8.30;;
18793;SDS011;29610;49.022;12.114;2023-10-09T12:18:04;21.23;;;6.20;;
18793;SDS011;29610;49.022;12.114;2023-10-09T12:20:41;21.00;;;6.70;;
18793;SDS011;29610;49.022;12.114;2023-10-09T12:23:16;22.40;;;6.30;;
18793;SDS011;29610;49.022;12.114;2023-10-09T12:25:49;18.60;;;6.37;;
18793;SDS011;29610;49.022;12.114;2023-10-09T12:28:23;20.07;;;6.67;;
18793;SDS011;29610;49.022;12.114;2023-10-09T12:30:51;23.53;;;6.30;;
18793;SDS011;29610;49.022;12.114;2023-10-09T12:33:19;14.03;;;5.80;;
18793;SDS011;29610;49.022;12.114;2023-10-09T12:35:54;17.17;;;6.00;;
18793;SDS011;29610;49.022;12.114;2023-10-09T12:38:26;26.00;;;6.30;;
18793;SDS011;29610;49.022;12.114;2023-10-09T12:41:04;23.03;;;5.97;;
18793;SDS011;29610;49.022;12.114;2023-10-09T12:43:46;21.30;;;5.77;;
18793;SDS011;29610;49.022;12.114;2023-10-09T12:46:14;20.90;;;6.33;;
18793;SDS011;29610;49.022;12.114;2023-10-09T12:48:43;20.13;;;5.97;;
18793;SDS011;29610;49.022;12.114;2023-10-09T12:51:13;27.13;;;6.03;;
18793;SDS011;29610;49.022;12.114;2023-10-09T12:53:43;21.00;;;6.10;;
18793;SDS011;29610;49.022;12.114;2023-10-09T12:56:16;22.80;;;6.13;;
18793;SDS011;29610;49.022;12.114;2023-10-09T12:58:45;15.90;;;5.50;;
18793;SDS011;29610;49.022;12.114;2023-10-09T13:01:20;22.93;;;6.57;;
18793;SDS011;29610;49.022;12.114;2023-10-09T13:03:48;24.50;;;7.13;;
18793;SDS011;29610;49.022;12.114;2023-10-09T13:06:17;27.10;;;6.30;;
18793;SDS011;29610;49.022;12.114;2023-10-09T13:08:51;37.07;;;7.43;;
18793;SDS011;29610;49.022;12.114;2023-10-09T13:11:21;20.13;;;7.73;;
18793;SDS011;29610;49.022;12.114;2023-10-09T13:13:52;25.47;;;8.03;;
18793;SDS011;29610;49.022;12.114;2023-10-09T13:16:20;19.80;;;6.43;;
18793;SDS011;29610;49.022;12.114;2023-10-09T13:18:50;20.40;;;6.20;;
18793;SDS011;29610;49.022;12.114;2023-10-09T13:21:21;21.40;;;7.27;;
18793;SDS011;29610;49.022;12.114;2023-10-09T13:23:52;20.23;;;6.50;;
18793;SDS011;29610;49.022;12.114;2023-10-09T13:26:23;19.57;;;7.40;;
18793;SDS011;29610;49.022;12.114;2023-10-09T13:29:00;24.73;;;7.07;;
18793;SDS011;29610;49.022;12.114;2023-10-09T13:31:30;21.53;;;6.83;;
18793;SDS011;29610;49.022;12.114;2023-10-09T13:34:01;26.07;;;6.70;;
18793;SDS011;29610;49.022;12.114;2023-10-09T13:36:33;27.63;;;8.20;;
18793;SDS011;29610;49.022;12.114;2023-10-09T13:39:02;22.40;;;7.37;;
18793;SDS011;29610;49.022;12.114;2023-10-09T13:41:50;20.07;;;6.40;;
18793;SDS011;29610;49.022;12.114;2023-10-09T13:44:25;21.67;;;7.47;;
18793;SDS011;29610;49.022;12.114;2023-10-09T13:46:54;27.70;;;6.07;;
18793;SDS011;29610;49.022;12.114;2023-10-09T13:49:23;21.30;;;6.50;;
18793;SDS011;29610;49.022;12.114;2023-10-09T13:51:57;30.80;;;8.10;;
18793;SDS011;29610;49.022;12.114;2023-10-09T13:54:26;16.83;;;5.47;;
18793;SDS011;29610;49.022;12.114;2023-10-09T13:57:07;18.80;;;5.90;;
18793;SDS011;29610;49.022;12.114;2023-10-09T13:59:37;29.83;;;8.47;;
18793;SDS011;29610;49.022;12.114;2023-10-09T14:02:10;22.00;;;6.53;;
18793;SDS011;29610;49.022;12.114;2023-10-09T14:04:45;25.10;;;6.07;;
18793;SDS011;29610;49.022;12.114;2023-10-09T14:07:14;29.00;;;6.33;;
18793;SDS011;29610;49.022;12.114;2023-10-09T14:09:44;21.87;;;6.03;;
18793;SDS011;29610;49.022;12.114;2023-10-09T14:12:23;30.40;;;9.93;;
18793;SDS011;29610;49.022;12.114;2023-10-09T14:14:56;26.00;;;7.87;;
18793;SDS011;29610;49.022;12.114;2023-10-09T14:17:24;23.13;;;6.60;;
18793;SDS011;29610;49.022;12.114;2023-10-09T14:19:55;20.87;;;6.73;;
18793;SDS011;29610;49.022;12.114;2023-10-09T14:22:46;17.90;;;5.03;;
18793;SDS011;29610;49.022;12.114;2023-10-09T14:25:19;20.97;;;4.63;;
18793;SDS011;29610;49.022;12.114;2023-10-09T14:27:49;30.07;;;6.23;;
18793;SDS011;29610;49.022;12.114;2023-10-09T14:30:19;15.13;;;4.43;;
18793;SDS011;29610;49.022;12.114;2023-10-09T14:32:56;17.80;;;5.13;;
18793;SDS011;29610;49.022;12.114;2023-10-09T14:35:27;20.37;;;4.90;;
18793;SDS011;29610;49.022;12.114;2023-10-09T14:37:56;15.60;;;4.57;;
18793;SDS011;29610;49.022;12.114;2023-10-09T14:40:27;16.70;;;4.83;;
18793;SDS011;29610;49.022;12.114;2023-10-09T14:42:59;20.10;;;4.67;;
18793;SDS011;29610;49.022;12.114;2023-10-09T14:45:29;20.20;;;4.53;;
18793;SDS011;29610;49.022;12.114;2023-10-09T14:47:58;17.40;;;4.80;;
18793;SDS011;29610;49.022;12.114;2023-10-09T14:50:27;13.13;;;4.47;;
18793;SDS011;29610;49.022;12.114;2023-10-09T14:52:55;24.00;;;4.03;;
18793;SDS011;29610;49.022;12.114;2023-10-09T14:55:27;15.37;;;4.77;;
18793;SDS011;29610;49.022;12.114;2023-10-09T14:57:59;16.30;;;4.17;;
18793;SDS011;29610;49.022;12.114;2023-10-09T15:00:27;18.43;;;3.93;;
18793;SDS011;29610;49.022;12.114;2023-10-09T15:03:00;21.03;;;4.33;;
18793;SDS011;29610;49.022;12.114;2023-10-09T15:05:29;17.57;;;4.17;;
18793;SDS011;29610;49.022;12.114;2023-10-09T15:08:01;23.47;;;5.00;;
18793;SDS011;29610;49.022;12.114;2023-10-09T15:10:31;17.60;;;4.53;;
18793;SDS011;29610;49.022;12.114;2023-10-09T15:13:00;19.53;;;4.43;;
18793;SDS011;29610;49.022;12.114;2023-10-09T15:15:30;15.80;;;3.97;;
18793;SDS011;29610;49.022;12.114;2023-10-09T15:17:59;22.23;;;4.50;;
18793;SDS011;29610;49.022;12.114;2023-10-09T15:20:29;22.87;;;5.43;;
18793;SDS011;29610;49.022;12.114;2023-10-09T15:22:58;18.20;;;3.80;;
18793;SDS011;29610;49.022;12.114;2023-10-09T15:25:27;14.53;;;3.80;;
18793;SDS011;29610;49.022;12.114;2023-10-09T15:27:56;17.73;;;4.30;;
18793;SDS011;29610;49.022;12.114;2023-10-09T15:30:25;27.37;;;4.20;;
18793;SDS011;29610;49.022;12.114;2023-10-09T15:32:54;14.90;;;4.33;;
18793;SDS011;29610;49.022;12.114;2023-10-09T15:35:26;14.83;;;3.70;;
18793;SDS011;29610;49.022;12.114;2023-10-09T15:37:56;22.17;;;5.00;;
18793;SDS011;29610;49.022;12.114;2023-10-09T15:40:29;22.50;;;4.13;;
18793;SDS011;29610;49.022;12.114;2023-10-09T15:43:01;15.50;;;3.90;;
18793;SDS011;29610;49.022;12.114;2023-10-09T15:45:32;22.00;;;4.47;;
18793;SDS011;29610;49.022;12.114;2023-10-09T15:48:09;21.27;;;4.90;;